createdAt,value
2023-01-17T00:02:14.501Z,65.60
2023-01-17T00:05:00.983Z,65.41
2023-01-17T00:07:47.602Z,65.58
2023-01-17T00:10:26.626Z,65.34
2023-01-17T00:12:59.309Z,65.12
2023-01-17T00:15:28.091Z,65.14
2023-01-17T00:17:55.894Z,65.00
2023-01-17T00:20:43.701Z,64.99
2023-01-17T00:23:33.283Z,65.17
2023-01-17T00:26:04.378Z,65.43
2023-01-17T00:28:36.473Z,65.78
2023-01-17T00:31:05.549Z,66.13
2023-01-17T00:33:33.554Z,66.12
2023-01-17T00:36:01.872Z,66.19
2023-01-17T00:38:30.861Z,66.23
2023-01-17T00:41:02.978Z,66.35
2023-01-17T00:43:49.591Z,66.41
2023-01-17T00:46:36.149Z,66.16
2023-01-17T00:49:23.307Z,66.05
2023-01-17T00:52:09.688Z,66.10
2023-01-17T00:54:56.111Z,66.00
2023-01-17T00:57:42.825Z,66.31
2023-01-17T01:00:29.343Z,66.25
2023-01-17T01:03:16.144Z,66.78
2023-01-17T01:06:02.743Z,67.60
2023-01-17T01:08:48.939Z,67.73
2023-01-17T01:11:37.391Z,67.40
2023-01-17T01:14:25.139Z,66.83
2023-01-17T01:17:11.743Z,67.90
2023-01-17T01:19:57.924Z,68.10
2023-01-17T01:22:44.345Z,68.04
2023-01-17T01:25:31.035Z,67.78
2023-01-17T01:28:24.924Z,67.68
2023-01-17T01:31:11.620Z,67.80
2023-01-17T01:33:39.840Z,67.65
2023-01-17T01:36:09.219Z,67.24
2023-01-17T01:38:37.682Z,67.49
2023-01-17T01:41:05.519Z,67.85
2023-01-17T01:43:39.354Z,68.04
2023-01-17T01:46:07.943Z,67.85
2023-01-17T01:48:38.467Z,67.61
2023-01-17T01:51:09.402Z,67.67
2023-01-17T01:53:38.905Z,67.90
2023-01-17T01:56:09.782Z,68.21
2023-01-17T01:58:39.053Z,68.21
2023-01-17T02:01:08.447Z,67.36
2023-01-17T02:03:37.937Z,67.43
2023-01-17T02:06:18.626Z,67.70
2023-01-17T02:08:46.801Z,67.08
2023-01-17T02:11:14.775Z,66.76
2023-01-17T02:13:43.454Z,66.47
2023-01-17T02:16:14.422Z,66.45
2023-01-17T02:18:45.643Z,66.47
2023-01-17T02:21:36.956Z,66.32
2023-01-17T02:24:17.213Z,66.51
2023-01-17T02:26:52.664Z,66.78
2023-01-17T02:29:39.159Z,67.45
2023-01-17T02:32:09.793Z,67.76
2023-01-17T02:34:43.638Z,67.20
2023-01-17T02:37:15.971Z,67.29
2023-01-17T02:39:51.415Z,67.35
2023-01-17T02:42:21.433Z,67.98
2023-01-17T02:44:49.315Z,68.41
2023-01-17T02:47:28.019Z,69.05
2023-01-17T02:50:17.701Z,69.33
2023-01-17T02:53:05.783Z,69.61
2023-01-17T02:55:45.692Z,69.19
2023-01-17T02:58:18.586Z,69.33
2023-01-17T03:00:52.779Z,68.87
2023-01-17T03:03:23.932Z,68.76
2023-01-17T03:06:04.497Z,69.05
2023-01-17T03:08:32.814Z,69.13
2023-01-17T03:11:01.671Z,69.51
2023-01-17T03:13:29.540Z,69.92
2023-01-17T03:15:57.507Z,69.94
2023-01-17T03:18:25.880Z,69.59
2023-01-17T03:20:53.959Z,69.26
2023-01-17T03:23:21.825Z,68.69
2023-01-17T03:25:49.566Z,67.46
2023-01-17T03:28:17.553Z,67.05
2023-01-17T03:30:45.434Z,67.63
2023-01-17T03:33:13.292Z,67.40
2023-01-17T03:35:41.134Z,66.93
2023-01-17T03:38:09.124Z,67.37
2023-01-17T03:40:37.312Z,67.32
2023-01-17T03:43:05.135Z,68.11
2023-01-17T03:45:32.985Z,68.37
2023-01-17T03:48:03.668Z,68.29
2023-01-17T03:50:31.634Z,68.55
2023-01-17T03:52:59.704Z,68.51
2023-01-17T03:55:27.590Z,68.07
2023-01-17T03:57:55.445Z,67.55
2023-01-17T04:00:23.408Z,67.13
2023-01-17T04:02:51.309Z,66.61
2023-01-17T04:05:19.455Z,66.04
2023-01-17T04:07:47.510Z,66.17
2023-01-17T04:10:15.658Z,66.46
2023-01-17T04:12:43.569Z,66.34
2023-01-17T04:15:11.645Z,66.32
2023-01-17T04:17:39.425Z,65.83
2023-01-17T04:20:07.785Z,65.69
2023-01-17T04:22:35.960Z,65.88
2023-01-17T04:25:04.136Z,66.63
2023-01-17T04:27:32.101Z,65.92
2023-01-17T04:29:59.964Z,65.90
2023-01-17T04:32:29.475Z,66.16
2023-01-17T04:34:57.334Z,65.95
2023-01-17T04:37:25.320Z,66.37
2023-01-17T04:39:53.180Z,66.95
2023-01-17T04:42:21.368Z,67.28
2023-01-17T04:44:49.320Z,67.83
2023-01-17T04:47:17.389Z,68.14
2023-01-17T04:49:45.260Z,68.36
2023-01-17T04:52:13.234Z,69.16
2023-01-17T04:54:41.408Z,70.23
2023-01-17T04:57:09.197Z,70.34
2023-01-17T04:59:37.445Z,71.11
2023-01-17T05:02:05.320Z,71.56
2023-01-17T05:04:33.283Z,71.72
2023-01-17T05:07:01.251Z,71.88
2023-01-17T05:09:29.118Z,70.78
2023-01-17T05:11:57.003Z,70.30
2023-01-17T05:14:27.934Z,71.50
2023-01-17T05:16:56.819Z,70.56
2023-01-17T05:19:25.600Z,71.07
2023-01-17T05:21:53.579Z,71.65
2023-01-17T05:24:21.561Z,70.90
2023-01-17T05:26:54.907Z,73.12
2023-01-17T05:29:23.117Z,73.02
2023-01-17T05:31:50.904Z,74.92
2023-01-17T05:34:18.743Z,74.47
2023-01-17T05:36:46.812Z,75.23
2023-01-17T05:39:14.705Z,77.52
2023-01-17T05:41:42.657Z,78.16
2023-01-17T05:44:10.723Z,77.52
2023-01-17T05:46:38.824Z,77.00
2023-01-17T05:49:06.783Z,76.68
2023-01-17T05:51:37.948Z,76.98
2023-01-17T05:54:06.286Z,78.13
2023-01-17T05:56:34.363Z,77.55
2023-01-17T05:59:02.185Z,75.84
2023-01-17T06:01:30.136Z,75.82
2023-01-17T06:03:58.166Z,76.39
2023-01-17T06:06:26.039Z,77.59
2023-01-17T06:08:53.905Z,78.34
2023-01-17T06:11:21.774Z,78.21
2023-01-17T06:13:49.946Z,78.12
2023-01-17T06:16:17.972Z,78.14
2023-01-17T06:18:45.882Z,77.43
2023-01-17T06:21:13.728Z,78.42
2023-01-17T06:23:41.616Z,79.87
2023-01-17T06:26:09.689Z,80.33
2023-01-17T06:28:37.761Z,79.72
2023-01-17T06:31:06.944Z,79.66
2023-01-17T06:33:35.135Z,78.31
2023-01-17T06:36:03.517Z,77.17
2023-01-17T06:38:31.704Z,77.71
2023-01-17T06:41:03.336Z,79.23
2023-01-17T06:43:34.083Z,80.09
2023-01-17T06:46:01.940Z,80.16
2023-01-17T06:48:29.811Z,80.33
2023-01-17T06:50:58.262Z,80.42
2023-01-17T06:53:26.257Z,80.46
2023-01-17T06:55:57.922Z,80.38
2023-01-17T06:58:25.898Z,80.37
2023-01-17T07:00:54.098Z,79.76
2023-01-17T07:03:23.564Z,79.16
2023-01-17T07:05:52.153Z,78.83
2023-01-17T07:08:20.649Z,78.21
2023-01-17T07:10:49.098Z,78.38
2023-01-17T07:13:17.193Z,78.87
2023-01-17T07:15:45.872Z,78.37
2023-01-17T07:18:14.669Z,78.03
2023-01-17T07:20:44.173Z,77.78
2023-01-17T07:23:12.649Z,76.63
2023-01-17T07:25:40.629Z,76.28
2023-01-17T07:28:08.794Z,75.39
2023-01-17T07:30:37.170Z,76.24
2023-01-17T07:33:05.645Z,75.93
2023-01-17T07:35:33.637Z,75.57
2023-01-17T07:38:01.589Z,75.83
2023-01-17T07:40:29.426Z,76.83
2023-01-17T07:43:01.834Z,77.78
2023-01-17T07:45:29.662Z,78.75
2023-01-17T07:47:57.971Z,78.69
2023-01-17T07:50:25.948Z,78.67
2023-01-17T07:52:54.526Z,78.88
2023-01-17T07:55:22.905Z,79.06
2023-01-17T07:57:51.107Z,79.10
2023-01-17T08:00:19.660Z,79.39
2023-01-17T08:02:47.541Z,79.35
2023-01-17T08:05:15.801Z,79.30
2023-01-17T08:07:43.772Z,79.02
2023-01-17T08:10:13.521Z,79.08
2023-01-17T08:12:41.409Z,78.96
2023-01-17T08:15:09.835Z,78.82
2023-01-17T08:17:37.682Z,78.88
2023-01-17T08:20:06.384Z,79.11
2023-01-17T08:22:34.257Z,78.90
2023-01-17T08:25:02.359Z,79.28
2023-01-17T08:27:30.192Z,79.48
2023-01-17T08:29:58.064Z,79.44
2023-01-17T08:32:25.934Z,79.09
2023-01-17T08:34:55.333Z,78.76
2023-01-17T08:37:23.702Z,78.22
2023-01-17T08:39:51.570Z,77.20
2023-01-17T08:42:19.455Z,76.67
2023-01-17T08:44:47.311Z,77.14
2023-01-17T08:47:15.286Z,76.58
2023-01-17T08:49:44.169Z,77.61
2023-01-17T08:52:14.618Z,79.15
2023-01-17T08:54:42.483Z,80.23
2023-01-17T08:57:10.638Z,80.67
2023-01-17T08:59:38.505Z,80.91
2023-01-17T09:02:14.995Z,81.22
2023-01-17T09:04:46.531Z,81.69
2023-01-17T09:07:15.313Z,81.51
2023-01-17T09:09:43.183Z,81.08
2023-01-17T09:12:11.165Z,80.72
2023-01-17T09:14:39.231Z,80.68
2023-01-17T09:17:07.298Z,80.97
2023-01-17T09:19:35.754Z,81.08
2023-01-17T09:22:04.777Z,81.67
2023-01-17T09:24:33.457Z,81.84
2023-01-17T09:27:01.737Z,81.53
2023-01-17T09:29:29.808Z,80.81
2023-01-17T09:31:57.881Z,79.22
2023-01-17T09:34:25.851Z,78.30
2023-01-17T09:36:54.026Z,78.39
2023-01-17T09:39:21.997Z,78.28
2023-01-17T09:42:12.798Z,79.10
2023-01-17T09:44:43.134Z,81.16
2023-01-17T09:47:14.026Z,79.79
2023-01-17T09:49:45.812Z,80.37
2023-01-17T09:52:14.911Z,81.37
2023-01-17T09:54:44.832Z,81.04
2023-01-17T09:57:31.332Z,81.18
2023-01-17T10:00:05.905Z,80.88
2023-01-17T10:02:44.256Z,80.35
2023-01-17T10:05:18.278Z,80.19
2023-01-17T10:08:05.092Z,80.08
2023-01-17T10:10:39.101Z,80.22
2023-01-17T10:13:26.012Z,79.73
2023-01-17T10:16:01.466Z,79.46
2023-01-17T10:18:35.371Z,79.36
2023-01-17T10:21:12.538Z,81.58
2023-01-17T10:23:43.408Z,81.98
2023-01-17T10:26:20.477Z,80.43
2023-01-17T10:28:51.220Z,80.15
2023-01-17T10:31:19.189Z,80.30
2023-01-17T10:33:53.028Z,80.20
2023-01-17T10:36:21.003Z,80.25
2023-01-17T10:38:52.308Z,80.71
2023-01-17T10:41:32.257Z,80.18
2023-01-17T10:44:18.755Z,79.50
2023-01-17T10:46:55.642Z,79.34
2023-01-17T10:49:24.833Z,79.64
2023-01-17T10:52:11.845Z,80.07
2023-01-17T10:54:55.286Z,80.11
2023-01-17T10:57:24.491Z,79.57
2023-01-17T10:59:53.161Z,79.30
2023-01-17T11:02:40.048Z,78.78
2023-01-17T11:05:19.421Z,78.71
2023-01-17T11:07:58.134Z,78.34
2023-01-17T11:10:38.015Z,76.07
2023-01-17T11:13:07.600Z,73.37
2023-01-17T11:15:39.696Z,69.27
2023-01-17T11:18:15.822Z,65.01
2023-01-17T11:20:43.892Z,67.80
2023-01-17T11:23:14.826Z,61.31
2023-01-17T11:25:55.197Z,58.58
2023-01-17T11:28:30.469Z,58.33
2023-01-17T11:31:03.847Z,59.59
2023-01-17T11:33:58.015Z,61.16
2023-01-17T11:36:28.552Z,60.32
2023-01-17T11:38:56.682Z,57.54
2023-01-17T11:41:28.364Z,55.08
2023-01-17T11:43:57.591Z,56.03
2023-01-17T11:46:26.310Z,51.40
2023-01-17T11:48:56.455Z,46.46
2023-01-17T11:51:27.219Z,42.52
2023-01-17T11:54:03.513Z,39.61
2023-01-17T11:56:33.322Z,40.78
2023-01-17T11:59:12.497Z,40.62
2023-01-17T12:01:51.246Z,40.00
2023-01-17T12:04:23.116Z,37.03
2023-01-17T12:07:00.499Z,36.83
2023-01-17T12:09:52.735Z,36.39
2023-01-17T12:12:53.372Z,38.45
2023-01-17T12:15:26.247Z,41.13
2023-01-17T12:17:56.991Z,40.24
2023-01-17T12:20:36.324Z,40.04
2023-01-17T12:23:26.716Z,41.73
2023-01-17T12:26:20.899Z,42.52
2023-01-17T12:28:51.533Z,45.40
2023-01-17T12:31:25.971Z,46.17
2023-01-17T12:34:12.064Z,47.76
2023-01-17T12:36:50.459Z,48.47
2023-01-17T12:39:21.916Z,49.02
2023-01-17T12:42:08.518Z,50.37
2023-01-17T12:44:59.783Z,50.62
2023-01-17T12:47:27.907Z,50.46
2023-01-17T12:50:14.308Z,49.19
2023-01-17T12:52:42.691Z,47.49
2023-01-17T12:55:20.303Z,43.49
2023-01-17T12:57:54.196Z,39.88
2023-01-17T13:00:25.574Z,38.30
2023-01-17T13:03:04.296Z,38.39
2023-01-17T13:05:41.142Z,38.73
2023-01-17T13:08:22.223Z,38.35
2023-01-17T13:10:59.616Z,36.35
2023-01-17T13:13:29.112Z,36.21
2023-01-17T13:15:57.053Z,36.20
2023-01-17T13:18:26.490Z,36.86
2023-01-17T13:20:58.138Z,36.56
2023-01-17T13:23:35.323Z,37.42
2023-01-17T13:26:03.600Z,37.95
2023-01-17T13:28:37.439Z,38.28
2023-01-17T13:31:17.609Z,40.41
2023-01-17T13:33:57.821Z,41.05
2023-01-17T13:36:44.731Z,41.78
2023-01-17T13:39:33.190Z,42.65
2023-01-17T13:42:03.928Z,43.90
2023-01-17T13:44:32.404Z,44.42
2023-01-17T13:47:04.395Z,45.05
2023-01-17T13:49:36.866Z,45.70
2023-01-17T13:52:04.808Z,46.37
2023-01-17T13:54:33.613Z,46.93
2023-01-17T13:57:20.308Z,47.33
2023-01-17T13:59:48.390Z,46.89
2023-01-17T14:02:34.408Z,47.68
2023-01-17T14:05:11.366Z,48.14
2023-01-17T14:07:47.925Z,47.66
2023-01-17T14:10:28.043Z,48.66
2023-01-17T14:12:56.661Z,48.21
2023-01-17T14:15:28.415Z,49.33
2023-01-17T14:17:58.744Z,48.92
2023-01-17T14:20:29.575Z,51.14
2023-01-17T14:23:02.465Z,51.66
2023-01-17T14:25:41.098Z,53.00
2023-01-17T14:28:18.165Z,52.12
2023-01-17T14:30:46.432Z,51.48
2023-01-17T14:33:18.715Z,53.94
2023-01-17T14:35:51.713Z,55.24
2023-01-17T14:38:42.364Z,55.78
2023-01-17T14:41:30.865Z,56.53
2023-01-17T14:44:01.194Z,56.74
2023-01-17T14:46:32.534Z,56.38
2023-01-17T14:49:04.497Z,56.81
2023-01-17T14:51:37.281Z,57.18
2023-01-17T14:54:17.527Z,57.24
2023-01-17T14:56:45.495Z,57.48
2023-01-17T14:59:14.950Z,58.37
2023-01-17T15:02:06.558Z,58.80
2023-01-17T15:04:39.782Z,58.92
2023-01-17T15:07:12.805Z,59.34
2023-01-17T15:09:42.517Z,58.94
2023-01-17T15:12:13.899Z,59.18
2023-01-17T15:14:43.584Z,58.91
2023-01-17T15:17:31.721Z,59.27
2023-01-17T15:20:01.880Z,58.58
2023-01-17T15:22:30.424Z,56.34
2023-01-17T15:24:59.107Z,55.66
2023-01-17T15:27:27.383Z,56.69
2023-01-17T15:29:59.351Z,57.44
2023-01-17T15:32:32.024Z,57.03
2023-01-17T15:35:02.975Z,57.54
2023-01-17T15:37:35.149Z,58.67
2023-01-17T15:40:06.344Z,60.64
2023-01-17T15:42:36.610Z,61.16
2023-01-17T15:45:06.873Z,59.16
2023-01-17T15:47:38.842Z,58.77
2023-01-17T15:50:30.267Z,58.75
2023-01-17T15:53:02.884Z,59.67
2023-01-17T15:55:31.060Z,60.86
2023-01-17T15:57:59.748Z,61.61
2023-01-17T16:00:38.391Z,59.95
2023-01-17T16:03:22.104Z,60.79
2023-01-17T16:05:50.691Z,59.69
2023-01-17T16:08:27.978Z,60.88
2023-01-17T16:10:58.811Z,59.47
2023-01-17T16:13:26.786Z,59.95
2023-01-17T16:15:54.917Z,59.43
2023-01-17T16:18:24.249Z,60.63
2023-01-17T16:20:55.756Z,60.56
2023-01-17T16:23:23.889Z,61.89
2023-01-17T16:25:51.852Z,64.91
2023-01-17T16:28:23.005Z,65.14
2023-01-17T16:30:54.153Z,63.25
2023-01-17T16:33:22.228Z,63.04
2023-01-17T16:35:53.727Z,63.77
2023-01-17T16:38:21.642Z,64.56
2023-01-17T16:40:49.599Z,65.59
2023-01-17T16:43:18.290Z,65.53
2023-01-17T16:45:53.073Z,65.19
2023-01-17T16:48:21.204Z,63.12
2023-01-17T16:50:53.096Z,63.32
2023-01-17T16:53:24.490Z,63.84
2023-01-17T16:55:55.252Z,63.46
2023-01-17T16:58:23.201Z,63.18
2023-01-17T17:00:51.411Z,62.47
2023-01-17T17:03:22.112Z,62.39
2023-01-17T17:05:57.269Z,62.82
2023-01-17T17:08:25.433Z,63.38
2023-01-17T17:10:53.505Z,64.20
2023-01-17T17:13:21.469Z,66.05
2023-01-17T17:15:49.560Z,66.57
2023-01-17T17:18:18.076Z,65.71
2023-01-17T17:20:46.089Z,64.42
2023-01-17T17:23:14.066Z,63.32
2023-01-17T17:25:42.028Z,64.09
2023-01-17T17:28:10.429Z,65.34
2023-01-17T17:30:38.231Z,67.39
2023-01-17T17:33:06.241Z,68.73
2023-01-17T17:35:35.040Z,68.78
2023-01-17T17:38:05.663Z,69.10
2023-01-17T17:40:34.764Z,68.66
2023-01-17T17:43:02.620Z,69.09
2023-01-17T17:45:30.403Z,69.48
2023-01-17T17:47:58.134Z,69.61
2023-01-17T17:50:26.124Z,69.78
2023-01-17T17:52:54.127Z,69.60
2023-01-17T17:55:22.067Z,69.48
2023-01-17T17:57:50.038Z,70.08
2023-01-17T18:00:18.308Z,70.28
2023-01-17T18:02:46.794Z,70.01
2023-01-17T18:05:14.777Z,69.46
2023-01-17T18:07:42.639Z,69.39
2023-01-17T18:10:10.610Z,69.54
2023-01-17T18:12:38.461Z,68.38
2023-01-17T18:15:06.537Z,68.28
2023-01-17T18:17:34.509Z,69.26
2023-01-17T18:20:02.586Z,69.14
2023-01-17T18:22:32.393Z,68.41
2023-01-17T18:25:00.255Z,68.41
2023-01-17T18:27:28.231Z,67.83
2023-01-17T18:29:56.136Z,69.36
2023-01-17T18:32:24.175Z,68.68
2023-01-17T18:34:52.132Z,67.82
2023-01-17T18:37:20.107Z,68.66
2023-01-17T18:39:48.073Z,68.65
2023-01-17T18:42:15.836Z,69.42
2023-01-17T18:44:43.811Z,70.54
2023-01-17T18:47:13.208Z,70.47
2023-01-17T18:49:41.493Z,69.82
2023-01-17T18:52:09.667Z,69.92
2023-01-17T18:54:37.751Z,69.84
2023-01-17T18:57:05.599Z,69.79
2023-01-17T18:59:33.578Z,69.79
2023-01-17T19:02:01.642Z,69.55
2023-01-17T19:04:31.870Z,69.62
2023-01-17T19:06:59.830Z,69.59
2023-01-17T19:09:27.809Z,69.37
2023-01-17T19:11:57.105Z,69.53
2023-01-17T19:14:25.485Z,69.08
2023-01-17T19:16:53.448Z,68.86
2023-01-17T19:19:21.533Z,68.64
2023-01-17T19:21:52.681Z,68.26
2023-01-17T19:24:20.641Z,68.35
2023-01-17T19:26:51.376Z,68.58
2023-01-17T19:29:19.344Z,68.49
2023-01-17T19:31:47.746Z,68.28
2023-01-17T19:34:19.072Z,68.34
2023-01-17T19:36:47.452Z,67.91
2023-01-17T19:39:15.623Z,68.06
2023-01-17T19:41:44.829Z,68.26
2023-01-17T19:44:13.923Z,68.16
2023-01-17T19:46:42.501Z,67.63
2023-01-17T19:49:10.510Z,67.14
2023-01-17T19:51:39.777Z,66.78
2023-01-17T19:54:08.622Z,66.66
2023-01-17T19:56:36.965Z,66.99
2023-01-17T19:59:05.107Z,67.20
2023-01-17T20:01:33.953Z,66.95
2023-01-17T20:04:02.591Z,67.30
2023-01-17T20:06:35.472Z,67.17
2023-01-17T20:09:04.264Z,67.80
2023-01-17T20:11:32.233Z,67.70
2023-01-17T20:14:00.623Z,68.05
2023-01-17T20:16:30.312Z,68.50
2023-01-17T20:18:59.507Z,68.43
2023-01-17T20:21:28.827Z,67.92
2023-01-17T20:23:57.920Z,67.05
2023-01-17T20:26:36.425Z,66.93
2023-01-17T20:29:07.590Z,66.42
2023-01-17T20:31:38.465Z,68.12
2023-01-17T20:34:08.221Z,66.93
2023-01-17T20:36:37.137Z,67.46
2023-01-17T20:39:06.512Z,67.81
2023-01-17T20:41:36.184Z,68.39
2023-01-17T20:44:05.327Z,68.41
2023-01-17T20:46:40.440Z,67.78
2023-01-17T20:49:13.050Z,68.48
2023-01-17T20:51:41.378Z,67.41
2023-01-17T20:54:11.122Z,67.38
2023-01-17T20:56:38.994Z,67.36
2023-01-17T20:59:09.416Z,66.98
2023-01-17T21:01:38.059Z,67.14
2023-01-17T21:04:10.263Z,66.52
2023-01-17T21:06:39.802Z,67.35
2023-01-17T21:09:10.414Z,67.11
2023-01-17T21:11:38.684Z,67.78
2023-01-17T21:14:06.657Z,67.89
2023-01-17T21:16:35.200Z,67.76
2023-01-17T21:19:03.929Z,68.60
2023-01-17T21:21:31.900Z,68.78
2023-01-17T21:24:00.106Z,68.81
2023-01-17T21:26:28.704Z,68.98
2023-01-17T21:28:58.363Z,68.94
2023-01-17T21:31:27.459Z,68.81
2023-01-17T21:33:56.769Z,68.58
2023-01-17T21:36:28.788Z,68.80
2023-01-17T21:38:58.542Z,68.50
2023-01-17T21:41:28.760Z,67.62
2023-01-17T21:43:57.558Z,67.02
2023-01-17T21:46:26.085Z,68.27
2023-01-17T21:48:54.110Z,68.20
2023-01-17T21:51:22.138Z,68.07
2023-01-17T21:53:50.358Z,67.76
2023-01-17T21:56:36.655Z,68.03
2023-01-17T21:59:04.634Z,67.78
2023-01-17T22:01:33.349Z,67.77
2023-01-17T22:04:03.044Z,67.80
2023-01-17T22:06:32.504Z,67.82
2023-01-17T22:09:00.693Z,67.73
2023-01-17T22:11:30.539Z,67.70
2023-01-17T22:13:59.347Z,67.63
2023-01-17T22:16:27.483Z,67.54
2023-01-17T22:18:55.463Z,67.38
2023-01-17T22:21:24.737Z,67.43
2023-01-17T22:23:54.263Z,67.36
2023-01-17T22:26:25.079Z,67.25
2023-01-17T22:28:53.422Z,66.96
2023-01-17T22:31:23.397Z,66.78
2023-01-17T22:34:02.122Z,66.76
2023-01-17T22:36:31.807Z,66.43
2023-01-17T22:38:59.761Z,66.38
2023-01-17T22:41:33.004Z,66.34
2023-01-17T22:44:05.630Z,66.59
2023-01-17T22:46:35.672Z,66.87
2023-01-17T22:49:04.276Z,66.39
2023-01-17T22:51:32.215Z,66.48
2023-01-17T22:54:00.839Z,66.31
2023-01-17T22:56:30.395Z,66.37
2023-01-17T22:58:58.644Z,66.60
2023-01-17T23:01:27.715Z,66.53
2023-01-17T23:03:59.687Z,66.52
2023-01-17T23:06:27.531Z,66.27
2023-01-17T23:08:56.678Z,65.94
2023-01-17T23:11:44.101Z,65.60
2023-01-17T23:14:17.424Z,65.52
2023-01-17T23:17:14.788Z,65.37
2023-01-17T23:19:42.687Z,65.09
2023-01-17T23:22:20.889Z,64.95
2023-01-17T23:24:59.893Z,65.03
2023-01-17T23:27:46.189Z,64.89
2023-01-17T23:30:17.336Z,64.69
2023-01-17T23:32:49.588Z,64.63
2023-01-17T23:35:18.800Z,64.51
2023-01-17T23:38:05.511Z,64.55
2023-01-17T23:40:34.419Z,64.51
2023-01-17T23:43:21.114Z,64.50
2023-01-17T23:45:49.973Z,64.68
2023-01-17T23:48:18.230Z,65.50
2023-01-17T23:50:46.973Z,65.52
2023-01-17T23:53:22.352Z,66.37
2023-01-17T23:55:51.912Z,66.82
2023-01-17T23:58:21.118Z,67.54
